Thompson Beach, New Jersey
Current Conditions -  °F | °C
As of 4:54 AM on Saturday 25 Oct 2014 (Local Time) from KMIV Reporting Station
Clear Clear  
Wind Chill: 37°   Ceiling: Unl
Heat Index: 41°   Visibility: 10mi
Dew Point: 38°   Wind: 6mph
Humidity: 89%   Direction: 260°W
Pressure: 29.91"   Gusts: NA
Location:  39.2484°N, 74.9941°W
Report Text: KMIV 250854Z AUTO 26005KT 10SM CLR 05/03 A2991 RMK AO2 SLP126 T00500033 51003
Loading
Personal Weather Stations






























Interactive Weather Map
Tropical Storm Tracking
New forecast layout! Learn more

10-Day Weather Forecast

Advertisements
Track Severe Weather on mobile